Terminal Aerodrome Forecast
Issued by NWS

Home | Current Version | Previous Version | Text Only | Print | Product List | Glossary On
Versions: 1 2 3 4 5 6 7 8 9 10 11 12 13
000
FTPA31 PHFO 300227 AAA
TAFHMK
TAF AMD
PHMK 300227Z 3002/3024 01009KT P6SM SCT030
     FM300500 03005KT P6SM FEW025
     FM301900 04010KT P6SM FEW030=

USA.gov is the U.S. government's official web portal to all federal, state and local government web resources and services.